Marsing, ID (83639)

5:57 PM MDT on August 04, 2015 (GMT -0600)
Sunny Slope | | Change Station
CLOSE
Current Station
Personal Weather Station
Location: Caldwell, ID
Elevation: 2566 ft
Nearby Weather Stations
Active Advisory: Fire Weather Warning Active Notice: Record Report, Local Storm Report

Elev 2566 ft 43.61 °N, 116.80 °W | Updated 13 seconds ago

Clear
Clear
93.4 °F
Feels Like 90 °F
N
0.2
Wind Variable Wind from SSW
Gusts 2.5 mph

Today
High -- | Low -- °F
--% Chance of Precip.
Yesterday
High -- | Low -- °F
Precip. -- in
6:39 AM 9:06 PM
Waning Gibbous, 73% visible
Pressure 29.87 in
Visibility 10.0 miles
Clouds Clear
Heat Index 90 °F
Dew Point 46 °F
Humidity 20%
Rainfall 0.27 in
Snow Depth Not available.
UV 2.0 out of 12
Pollen 5.50 out of 12
Air Quality Not available.
Flu Activity Not available.
METAR KEUL 042355Z AUTO 04007KT 10SM CLR 33/10 A2987 RMK AO1 10330 20260 403400170 57024

More Conditions Fewer Conditions

Pressure 29.87 in
Visibility 10.0 miles
Clouds Clear
Heat Index 90 °F
Dew Point 46 °F
Humidity 20%
Rainfall 0.27 in
Snow Depth Not available.
UV 2.0 out of 12
Pollen 5.50 out of 12
Air Quality Not available.
Flu Activity Not available.
METAR KEUL 042355Z AUTO 04007KT 10SM CLR 33/10 A2987 RMK AO1 10330 20260 403400170 57024

More Conditions Fewer Conditions

10-Day Weather Forecast

×

Almanac

Astronomy

Aug. 04, 2015 Rise Set
Actual Time
Civil Twilight
Nautical Twilight
Astronomical Twilight
Moon
Length of Visible Light
Length of Day
Tomorrow will be .
, % of the Moon is Illuminated

Today's Extremes

State Highs State Lows

Community

WunderPhotos

Upload Photos

1,844,023 photos uploaded!

WunderBlogs® & News

Nearby

Air Quality

  Air Quality AQ Index Pollutant
Not available.

Snow Depth

Station Depth Elevation

Earthquake Activity

City Distance Mag. Time & Date
Minimum magnitude displayed is 2.5.

Coastal Water Temperatures

Place Temperature

Stations

Nearby Weather Stations

Station Location Temp. Windchill Dew Point Humidity Wind Precip. Elev Updated Type
                   
Fire Weather Warning
Statement as of 3:17 PM MDT on August 04, 2015

... Red flag warning for lightning now in effect from 6 am MDT
Wednesday morning to 7 PM MDT Wednesday evening for the northern
Boise blm... western Payette National Forest... Treasure valley
blm... western Twin Falls blm and Vale blm... which are fire weather
zones 400... 401... 420... 424 and 637...

* thunderstorms... isolated coverage overnight... then increasing in
coverage /to scattered/ after sunrise.

* Outflow winds... gusts up to 50 mph are possible.

Precautionary/preparedness actions...

A red flag warning means that critical fire weather conditions
are either occurring now... or will shortly.




L